Terminal Aerodrome Forecast
Issued by NWS Topeka, KS

Home | Current Version | Previous Version | Text Only | Print | Product List | Glossary Off
Versions: 1 2 3 4 5 6 7 8 9 10 11 12 13

000
FTUS43 KTOP 162320
TAFTOP
TAF
KTOP 162320Z 1700/1724 19006KT P6SM SKC
     FM170300 19004KT P6SM FEW250 WS009/22035KT
     FM171300 20007KT P6SM SKC=

USA.gov is the U.S. government's official web portal to all federal, state and local government web resources and services.